Salida, CO

10:08 AM MDT on September 02, 2015 (GMT -0600)
Elk Trail | | Change Station
CLOSE
Current Station
Personal Weather Station
Location: Salida, CO
Elevation: 8130 ft
Nearby Weather Stations

Elev 8130 ft 38.55 °N, 106.12 °W | Updated 1 minute ago

Clear
Clear
63.9 °F
Feels Like 63.9 °F
N
5.0
Wind Variable Wind from East
Gusts 7.0 mph

Today
High -- | Low -- °F
--% Chance of Precip.
Yesterday
High -- | Low -- °F
Precip. -- in
6:34 AM 7:33 PM
Waning Gibbous, 79% visible
Pressure 30.43 in
Visibility 10.0 miles
Clouds Clear
Dew Point 49 °F
Humidity 58%
Rainfall 0.00 in
Snow Depth Not available.
UV 5 out of 12
Pollen 10.80 out of 12
Air Quality Not available.
Flu Activity Not available.
METAR KANK 021555Z AUTO 00000KT 10SM CLR 17/08 A3043 RMK AO1 T01720082
Pressure 30.43 in
Visibility 10.0 miles
Clouds Clear
Dew Point 49 °F
Humidity 58%
Rainfall 0.00 in
Snow Depth Not available.
UV 5 out of 12
Pollen 10.80 out of 12
Air Quality Not available.
Flu Activity Not available.
METAR KANK 021555Z AUTO 00000KT 10SM CLR 17/08 A3043 RMK AO1 T01720082

10-Day Weather Forecast

×

Almanac

Astronomy

Sep. 02, 2015 Rise Set
Actual Time
Civil Twilight
Nautical Twilight
Astronomical Twilight
Moon
Length of Visible Light
Length of Day
Tomorrow will be .
, % of the Moon is Illuminated

Today's Extremes

State Highs State Lows

Community

WunderPhotos

Upload Photos

1,851,776 photos uploaded!

WunderBlogs® & News

Nearby

Air Quality

  Air Quality AQ Index Pollutant
Not available.

Snow Depth

Station Depth Elevation

Earthquake Activity

City Distance Mag. Time & Date
Minimum magnitude displayed is 2.5.

Coastal Water Temperatures

Place Temperature

Stations

Nearby Weather Stations

Station Location Temp. Windchill Dew Point Humidity Wind Precip. Elev Updated Type